Estación Meteorológica Peña el Pijo (Robertgarden) [ 01/30/23 15:08:25 CET ]

Fecha Hora Presion(HPa) Temp (°C) Humedad % Rocio (°C) Viento ( m/s) Direccion Lluvia 1Hora(mm) Lluvia 24H(mm) LLuvia Total(mm)
2010-Mar-29 01:01:12 1009.700 5.8 79 2.4         104.63
2010-Mar-29 02:01:16 1009.100 4.4 82 1.6         104.63
2010-Mar-29 03:03:19 1008.600 3.8 85 1.5         104.63
2010-Mar-29 04:01:16 1007.800 3.5 85 1.2         104.63
2010-Mar-29 05:01:17 1007.100 2.9 85 0.6         104.63
2010-Mar-29 06:01:11 1006.800 2.5 86 0.4         104.63
2010-Mar-29 07:01:18 1006.300 1.3 87 -0.7         104.63
2010-Mar-29 08:01:12 1006.300 0.9 87 -1.1         104.63
2010-Mar-29 09:01:12 1005.800 1.3 87 -0.7         104.63
2010-Mar-29 10:01:16 1005.300 7.8 71 2.9         104.63
2010-Mar-29 11:01:14 1005.000 14.9 38 0.6         104.63
2010-Mar-29 12:01:14 1004.600 18.2 31 0.8         104.63
2010-Mar-29 13:01:14 1004.100 20.1 23 -1.9 1.1 ESE     104.63
2010-Mar-29 14:01:16 1003.800 21.5 19 -3.3         104.63
2010-Mar-29 15:01:16 1004.400 20.2 23 -1.8         104.63
2010-Mar-29 16:01:13 1004.400 18.7 32 1.6         104.63
2010-Mar-29 17:01:18 1004.600 16.4 38 2.0 1.5 SE     104.63
2010-Mar-29 18:01:13 1006.100 11.9 60 4.4         104.63
2010-Mar-29 19:01:11 1004.900 11.0 62 4.0 0.7 E     104.63
2010-Mar-29 20:01:13 1004.600 9.8 62 2.9 2.6 ESE     104.63
2010-Mar-29 21:01:14 1004.200 9.6 63 2.9 4.3 SSW     104.63
2010-Mar-29 22:01:13 1004.400 9.3 62 2.4 2.0 SE     104.63
2010-Mar-29 23:01:16 1004.700 9.0 65 2.8 1.6 SE     104.63

Temperatura Máxima:21°    Temperatura Mínima:
Presión Máxima:1009.700 Hpa    Presión Mínima:1003.800 Hpa


Volver